^^
Meteo Knjazevac Station Historical Data
Daily Summary for May 26, 2022 Units:  Both    English   Metric
Daily Weekly Monthly Yearly Custom
  High: Low: Average:
Temperature: 82.8 °F /  28.2 °C 58.2 °F /  14.6 °C 70.8 °F /  21.6 °C
Dew Point: 66.2 °F /  19 °C 53.7 °F /  12.1 °C 59.7 °F /  15.4 °C
Humidity: 88% 51% 69%
Wind Speed: 10mph /  16.1km/h - 4.4mph /  7.1km/h
Wind Gust: 20mph /  32.2km/h - -
Wind- - WSW
Pressure: 30.22 in /  1023.2 hPa 30.06 in /  1017.8 hPa -
Precipitation: 0.00 in /  0 mm    
Historical Graphs
 
 
Tabular Data for May 26, 2022
Time Temperature Dew Point Pressure Wind Wind Speed Wind Gust Humidity Rainfall Rate (Hourly) solar Conditions
00:00 61 °F /  16.1 °C 54.4 °F /  12.4 °C 30.07in /  1018.2hPa West 1mph /  1.6km/h 4mph /  6.4km/h 79% 0.00in /  0mm 0 W/m2
00:10 60.6 °F /  15.9 °C 54.4 °F /  12.4 °C 30.06in /  1017.8hPa WNW 1mph /  1.6km/h 4mph /  6.4km/h 80% 0.00in /  0mm 0 W/m2
00:20 60.4 °F /  15.8 °C 54.2 °F /  12.3 °C 30.07in /  1018.2hPa WSW 2mph /  3.2km/h 5mph /  8km/h 80% 0.00in /  0mm 0 W/m2
00:30 60.3 °F /  15.7 °C 54.1 °F /  12.3 °C 30.07in /  1018.2hPa WNW 2mph /  3.2km/h 4mph /  6.4km/h 80% 0.00in /  0mm 0 W/m2
00:40 60.3 °F /  15.7 °C 54.4 °F /  12.4 °C 30.08in /  1018.5hPa West 3mph /  4.8km/h 6mph /  9.7km/h 81% 0.00in /  0mm 0 W/m2
00:50 60.1 °F /  15.6 °C 54.2 °F /  12.3 °C 30.08in /  1018.5hPa West 1mph /  1.6km/h 5mph /  8km/h 81% 0.00in /  0mm 0 W/m2
01:00 59.7 °F /  15.4 °C 53.9 °F /  12.2 °C 30.08in /  1018.5hPa WNW 2mph /  3.2km/h 5mph /  8km/h 81% 0.00in /  0mm 0 W/m2
01:10 59.7 °F /  15.4 °C 53.9 °F /  12.2 °C 30.08in /  1018.5hPa WNW 2mph /  3.2km/h 4mph /  6.4km/h 81% 0.00in /  0mm 0 W/m2
01:20 59.7 °F /  15.4 °C 53.9 °F /  12.2 °C 30.08in /  1018.5hPa West 2mph /  3.2km/h 4mph /  6.4km/h 81% 0.00in /  0mm 0 W/m2
01:30 60.1 °F /  15.6 °C 54.2 °F /  12.3 °C 30.08in /  1018.5hPa North 1mph /  1.6km/h 4mph /  6.4km/h 81% 0.00in /  0mm 0 W/m2
01:40 60.3 °F /  15.7 °C 54.4 °F /  12.4 °C 30.08in /  1018.5hPa Calm   3mph /  4.8km/h 81% 0.00in /  0mm 0 W/m2
01:50 60.4 °F /  15.8 °C 54.6 °F /  12.6 °C 30.08in /  1018.5hPa North 1mph /  1.6km/h 5mph /  8km/h 81% 0.00in /  0mm 0 W/m2
02:00 60.8 °F /  16 °C 54.9 °F /  12.7 °C 30.09in /  1018.8hPa NE 2mph /  3.2km/h 4mph /  6.4km/h 81% 0.00in /  0mm 0 W/m2
02:10 60.8 °F /  16 °C 54.6 °F /  12.6 °C 30.09in /  1018.8hPa North 1mph /  1.6km/h 3mph /  4.8km/h 80% 0.00in /  0mm 0 W/m2
02:20 60.4 °F /  15.8 °C 54.6 °F /  12.6 °C 30.09in /  1018.8hPa North 1mph /  1.6km/h 4mph /  6.4km/h 81% 0.00in /  0mm 0 W/m2
02:30 60.1 °F /  15.6 °C 54.9 °F /  12.7 °C 30.08in /  1018.5hPa Calm   5mph /  8km/h 83% 0.00in /  0mm 0 W/m2
02:40 60.3 °F /  15.7 °C 55.1 °F /  12.8 °C 30.09in /  1018.8hPa NNW 1mph /  1.6km/h 3mph /  4.8km/h 83% 0.00in /  0mm 0 W/m2
02:50 60.3 °F /  15.7 °C 55.1 °F /  12.8 °C 30.09in /  1018.8hPa North 3mph /  4.8km/h 4mph /  6.4km/h 83% 0.00in /  0mm 0 W/m2
03:00 60.8 °F /  16 °C 55 °F /  12.8 °C 30.10in /  1019.2hPa NNE 5mph /  8km/h 6mph /  9.7km/h 81% 0.00in /  0mm 0 W/m2
03:10 61 °F /  16.1 °C 55.1 °F /  12.8 °C 30.11in /  1019.5hPa NW 3mph /  4.8km/h 5mph /  8km/h 81% 0.00in /  0mm 0 W/m2
03:20 60.8 °F /  16 °C 54.9 °F /  12.7 °C 30.12in /  1019.9hPa NE 1mph /  1.6km/h 7mph /  11.3km/h 81% 0.00in /  0mm 0 W/m2
03:30 60.8 °F /  16 °C 54.9 °F /  12.7 °C 30.12in /  1019.9hPa NNE 6mph /  9.7km/h 8mph /  12.9km/h 81% 0.00in /  0mm 0 W/m2
03:40 60.8 °F /  16 °C 54.6 °F /  12.6 °C 30.12in /  1019.9hPa NE 3mph /  4.8km/h 6mph /  9.7km/h 80% 0.00in /  0mm 0 W/m2
03:50 60.8 °F /  16 °C 54.9 °F /  12.7 °C 30.12in /  1019.9hPa NE 1mph /  1.6km/h 5mph /  8km/h 81% 0.00in /  0mm 0 W/m2
04:00 60.4 °F /  15.8 °C 54.5 °F /  12.5 °C 30.12in /  1019.9hPa North 2mph /  3.2km/h 3mph /  4.8km/h 81% 0.00in /  0mm 0 W/m2
04:10 60.1 °F /  15.6 °C 54.3 °F /  12.4 °C 30.13in /  1020.2hPa North 1mph /  1.6km/h 3mph /  4.8km/h 81% 0.00in /  0mm 0 W/m2
04:20 60.1 °F /  15.6 °C 54.2 °F /  12.3 °C 30.12in /  1019.9hPa Calm     81% 0.00in /  0mm 0 W/m2
04:30 59.7 °F /  15.4 °C 54.5 °F /  12.5 °C 30.13in /  1020.2hPa NW 1mph /  1.6km/h 2mph /  3.2km/h 83% 0.00in /  0mm 0 W/m2
04:40 59.5 °F /  15.3 °C 54.4 °F /  12.4 °C 30.13in /  1020.2hPa NNW 1mph /  1.6km/h 3mph /  4.8km/h 83% 0.00in /  0mm 0 W/m2
04:50 59.2 °F /  15.1 °C 54.3 °F /  12.4 °C 30.13in /  1020.2hPa WSW 2mph /  3.2km/h 3mph /  4.8km/h 84% 0.00in /  0mm 0 W/m2
05:00 58.6 °F /  14.8 °C 53.8 °F /  12.1 °C 30.13in /  1020.2hPa West 1mph /  1.6km/h 3mph /  4.8km/h 84% 0.00in /  0mm 2 W/m2
05:10 58.3 °F /  14.6 °C 53.8 °F /  12.1 °C 30.13in /  1020.2hPa Calm   2mph /  3.2km/h 85% 0.00in /  0mm 5 W/m2
05:20 58.2 °F /  14.6 °C 53.7 °F /  12.1 °C 30.13in /  1020.2hPa Calm   2mph /  3.2km/h 85% 0.00in /  0mm 10 W/m2
05:30 58.3 °F /  14.6 °C 54.1 °F /  12.3 °C 30.13in /  1020.2hPa Calm   2mph /  3.2km/h 86% 0.00in /  0mm 10 W/m2
05:40 58.5 °F /  14.7 °C 54.6 °F /  12.6 °C 30.13in /  1020.2hPa NNW 2mph /  3.2km/h 3mph /  4.8km/h 87% 0.01in /  0.25mm 20 W/m2
05:50 58.5 °F /  14.7 °C 54.3 °F /  12.4 °C 30.14in /  1020.5hPa WNW 1mph /  1.6km/h 4mph /  6.4km/h 86% 0.00in /  0mm 29 W/m2
06:00 58.5 °F /  14.7 °C 54.6 °F /  12.6 °C 30.14in /  1020.5hPa NW 3mph /  4.8km/h 5mph /  8km/h 87% 0.00in /  0mm 35 W/m2
06:10 58.7 °F /  14.8 °C 55.1 °F /  12.8 °C 30.14in /  1020.5hPa North 2mph /  3.2km/h 3mph /  4.8km/h 88% 0.00in /  0mm 49 W/m2
06:30 59.4 °F /  15.2 °C 55.2 °F /  12.9 °C 30.15in /  1020.9hPa Calm   4mph /  6.4km/h 86% 0.00in /  0mm 86 W/m2
06:40 59.5 °F /  15.3 °C 55.3 °F /  12.9 °C 30.15in /  1020.9hPa Calm   2mph /  3.2km/h 86% 0.00in /  0mm 101 W/m2
06:50 59.9 °F /  15.5 °C 55.7 °F /  13.2 °C 30.15in /  1020.9hPa WNW 1mph /  1.6km/h 2mph /  3.2km/h 86% 0.00in /  0mm 100 W/m2
07:00 60.3 °F /  15.7 °C 56.1 °F /  13.4 °C 30.16in /  1021.2hPa Calm   2mph /  3.2km/h 86% 0.00in /  0mm 201 W/m2
07:10 60.9 °F /  16.1 °C 56.3 °F /  13.5 °C 30.16in /  1021.2hPa Calm   2mph /  3.2km/h 85% 0.00in /  0mm 230 W/m2
07:20 61.7 °F /  16.5 °C 56.8 °F /  13.8 °C 30.17in /  1021.6hPa WNW 1mph /  1.6km/h 2mph /  3.2km/h 84% 0.00in /  0mm 237 W/m2
07:30 62.5 °F /  16.9 °C 56.6 °F /  13.7 °C 30.17in /  1021.6hPa Calm   3mph /  4.8km/h 81% 0.00in /  0mm 279 W/m2
07:40 63.6 °F /  17.6 °C 57.6 °F /  14.2 °C 30.17in /  1021.6hPa Calm   1mph /  1.6km/h 81% 0.00in /  0mm 251 W/m2
07:50 64.8 °F /  18.2 °C 58.2 °F /  14.6 °C 30.18in /  1021.9hPa WNW 1mph /  1.6km/h 3mph /  4.8km/h 79% 0.00in /  0mm 369 W/m2
08:00 66.3 °F /  19.1 °C 59.9 °F /  15.5 °C 30.18in /  1021.9hPa WSW 6mph /  9.7km/h 11mph /  17.7km/h 80% 0.00in /  0mm 382 W/m2
08:10 68.1 °F /  20.1 °C 61.3 °F /  16.3 °C 30.18in /  1021.9hPa WSW 9mph /  14.5km/h 14mph /  22.5km/h 79% 0.00in /  0mm 446 W/m2
08:20 69.4 °F /  20.8 °C 61.9 °F /  16.6 °C 30.18in /  1021.9hPa WSW 7mph /  11.3km/h 14mph /  22.5km/h 77% 0.00in /  0mm 433 W/m2
08:30 70.5 °F /  21.4 °C 62.2 °F /  16.8 °C 30.19in /  1022.2hPa WSW 6mph /  9.7km/h 14mph /  22.5km/h 75% 0.00in /  0mm 416 W/m2
08:40 71.1 °F /  21.7 °C 62.4 °F /  16.9 °C 30.19in /  1022.2hPa West 8mph /  12.9km/h 14mph /  22.5km/h 74% 0.00in /  0mm 508 W/m2
08:50 72 °F /  22.2 °C 62.8 °F /  17.1 °C 30.19in /  1022.2hPa West 9mph /  14.5km/h 14mph /  22.5km/h 73% 0.00in /  0mm 554 W/m2
09:00 72.5 °F /  22.5 °C 63 °F /  17.2 °C 30.19in /  1022.2hPa West 8mph /  12.9km/h 16mph /  25.7km/h 72% 0.00in /  0mm 598 W/m2
09:10 73.3 °F /  22.9 °C 62.9 °F /  17.2 °C 30.19in /  1022.2hPa West 7mph /  11.3km/h 15mph /  24.1km/h 70% 0.00in /  0mm 672 W/m2
09:20 73.8 °F /  23.2 °C 63 °F /  17.2 °C 30.19in /  1022.2hPa WNW 7mph /  11.3km/h 15mph /  24.1km/h 69% 0.00in /  0mm 671 W/m2
09:30 74.5 °F /  23.6 °C 63.2 °F /  17.3 °C 30.19in /  1022.2hPa West 8mph /  12.9km/h 14mph /  22.5km/h 68% 0.00in /  0mm 713 W/m2
09:40 75.4 °F /  24.1 °C 63.7 °F /  17.6 °C 30.19in /  1022.2hPa WNW 6mph /  9.7km/h 12mph /  19.3km/h 67% 0.00in /  0mm 742 W/m2
09:50 75.9 °F /  24.4 °C 64.2 °F /  17.9 °C 30.19in /  1022.2hPa West 6mph /  9.7km/h 13mph /  20.9km/h 67% 0.00in /  0mm 787 W/m2
10:00 76.8 °F /  24.9 °C 63.7 °F /  17.6 °C 30.19in /  1022.2hPa WNW 6mph /  9.7km/h 14mph /  22.5km/h 64% 0.00in /  0mm 808 W/m2
10:10 77.5 °F /  25.3 °C 63.9 °F /  17.7 °C 30.19in /  1022.2hPa WNW 9mph /  14.5km/h 16mph /  25.7km/h 63% 0.00in /  0mm 823 W/m2
10:20 76.8 °F /  24.9 °C 63.3 °F /  17.4 °C 30.20in /  1022.6hPa West 8mph /  12.9km/h 16mph /  25.7km/h 63% 0.00in /  0mm 496 W/m2
10:30 76.5 °F /  24.7 °C 63.4 °F /  17.4 °C 30.20in /  1022.6hPa West 10mph /  16.1km/h 15mph /  24.1km/h 64% 0.01in /  0.25mm 808 W/m2
10:40 77 °F /  25 °C 63.9 °F /  17.7 °C 30.19in /  1022.2hPa West 10mph /  16.1km/h 16mph /  25.7km/h 64% 0.00in /  0mm 262 W/m2
10:50 77.5 °F /  25.3 °C 64.4 °F /  18 °C 30.19in /  1022.2hPa West 8mph /  12.9km/h 16mph /  25.7km/h 64% 0.00in /  0mm 430 W/m2
11:00 78.3 °F /  25.7 °C 65.1 °F /  18.4 °C 30.19in /  1022.2hPa West 8mph /  12.9km/h 14mph /  22.5km/h 64% 0.00in /  0mm 462 W/m2
11:10 78.8 °F /  26 °C 65.1 °F /  18.4 °C 30.19in /  1022.2hPa West 9mph /  14.5km/h 14mph /  22.5km/h 63% 0.00in /  0mm 362 W/m2
11:20 79.5 °F /  26.4 °C 65.8 °F /  18.8 °C 30.20in /  1022.6hPa West 6mph /  9.7km/h 16mph /  25.7km/h 63% 0.00in /  0mm 814 W/m2
11:30 79.9 °F /  26.6 °C 66.2 °F /  19 °C 30.20in /  1022.6hPa West 10mph /  16.1km/h 17mph /  27.4km/h 63% 0.00in /  0mm 903 W/m2
11:40 79.9 °F /  26.6 °C 65.7 °F /  18.7 °C 30.20in /  1022.6hPa West 9mph /  14.5km/h 16mph /  25.7km/h 62% 0.00in /  0mm 886 W/m2
11:50 79.5 °F /  26.4 °C 65.4 °F /  18.6 °C 30.20in /  1022.6hPa West 10mph /  16.1km/h 15mph /  24.1km/h 62% 0.00in /  0mm 923 W/m2
12:00 79.2 °F /  26.2 °C 65.5 °F /  18.6 °C 30.20in /  1022.6hPa West 9mph /  14.5km/h 16mph /  25.7km/h 63% 0.00in /  0mm 932 W/m2
12:10 79.5 °F /  26.4 °C 65.8 °F /  18.8 °C 30.21in /  1022.9hPa West 9mph /  14.5km/h 20mph /  32.2km/h 63% 0.00in /  0mm 941 W/m2
12:20 79.3 °F /  26.3 °C 65.6 °F /  18.7 °C 30.20in /  1022.6hPa WNW 7mph /  11.3km/h 18mph /  29km/h 63% 0.00in /  0mm 908 W/m2
12:30 79.7 °F /  26.5 °C 65.5 °F /  18.6 °C 30.20in /  1022.6hPa WNW 8mph /  12.9km/h 15mph /  24.1km/h 62% 0.00in /  0mm 586 W/m2
12:40 80.4 °F /  26.9 °C 65.3 °F /  18.5 °C 30.21in /  1022.9hPa WNW 9mph /  14.5km/h 14mph /  22.5km/h 60% 0.00in /  0mm 664 W/m2
12:50 80.2 °F /  26.8 °C 65.1 °F /  18.4 °C 30.20in /  1022.6hPa West 9mph /  14.5km/h 13mph /  20.9km/h 60% 0.00in /  0mm 802 W/m2
13:00 80.8 °F /  27.1 °C 65.6 °F /  18.7 °C 30.20in /  1022.6hPa NW 6mph /  9.7km/h 14mph /  22.5km/h 60% 0.00in /  0mm 700 W/m2
13:10 81.1 °F /  27.3 °C 65.5 °F /  18.6 °C 30.20in /  1022.6hPa WNW 6mph /  9.7km/h 13mph /  20.9km/h 59% 0.00in /  0mm 775 W/m2
13:20 81.4 °F /  27.4 °C 65.7 °F /  18.7 °C 30.20in /  1022.6hPa West 7mph /  11.3km/h 12mph /  19.3km/h 59% 0.00in /  0mm 934 W/m2
13:30 81.9 °F /  27.7 °C 65.6 °F /  18.7 °C 30.20in /  1022.6hPa West 8mph /  12.9km/h 14mph /  22.5km/h 58% 0.00in /  0mm 911 W/m2
13:40 81.7 °F /  27.6 °C 65.5 °F /  18.6 °C 30.19in /  1022.2hPa West 10mph /  16.1km/h 16mph /  25.7km/h 58% 0.00in /  0mm 909 W/m2
13:50 81.7 °F /  27.6 °C 65.5 °F /  18.6 °C 30.19in /  1022.2hPa West 8mph /  12.9km/h 15mph /  24.1km/h 58% 0.00in /  0mm 896 W/m2
14:00 81.9 °F /  27.7 °C 65.6 °F /  18.7 °C 30.19in /  1022.2hPa WSW 7mph /  11.3km/h 14mph /  22.5km/h 58% 0.00in /  0mm 885 W/m2
14:10 81.7 °F /  27.6 °C 65.5 °F /  18.6 °C 30.19in /  1022.2hPa WSW 9mph /  14.5km/h 16mph /  25.7km/h 58% 0.00in /  0mm 868 W/m2
14:20 81.3 °F /  27.4 °C 65.1 °F /  18.4 °C 30.19in /  1022.2hPa WSW 7mph /  11.3km/h 17mph /  27.4km/h 58% 0.00in /  0mm 836 W/m2
14:30 81.7 °F /  27.6 °C 65 °F /  18.3 °C 30.18in /  1021.9hPa WSW 9mph /  14.5km/h 14mph /  22.5km/h 57% 0.00in /  0mm 831 W/m2
14:40 81.9 °F /  27.7 °C 65.6 °F /  18.7 °C 30.18in /  1021.9hPa West 9mph /  14.5km/h 16mph /  25.7km/h 58% 0.00in /  0mm 821 W/m2
14:50 81.7 °F /  27.6 °C 65.5 °F /  18.6 °C 30.18in /  1021.9hPa WSW 8mph /  12.9km/h 14mph /  22.5km/h 58% 0.00in /  0mm 797 W/m2
15:00 81.5 °F /  27.5 °C 64.8 °F /  18.2 °C 30.18in /  1021.9hPa West 6mph /  9.7km/h 15mph /  24.1km/h 57% 0.00in /  0mm 766 W/m2
15:10 81.7 °F /  27.6 °C 65 °F /  18.3 °C 30.17in /  1021.6hPa WSW 7mph /  11.3km/h 13mph /  20.9km/h 57% 0.00in /  0mm 748 W/m2
15:20 82.2 °F /  27.9 °C 65.5 °F /  18.6 °C 30.17in /  1021.6hPa West 5mph /  8km/h 12mph /  19.3km/h 57% 0.00in /  0mm 715 W/m2
15:30 82.6 °F /  28.1 °C 64.8 °F /  18.2 °C 30.17in /  1021.6hPa West 8mph /  12.9km/h 13mph /  20.9km/h 55% 0.00in /  0mm 695 W/m2
15:40 82.4 °F /  28 °C 64.6 °F /  18.1 °C 30.17in /  1021.6hPa West 6mph /  9.7km/h 13mph /  20.9km/h 55% 0.00in /  0mm 668 W/m2
15:50 82.6 °F /  28.1 °C 64.8 °F /  18.2 °C 30.17in /  1021.6hPa WSW 6mph /  9.7km/h 12mph /  19.3km/h 55% 0.00in /  0mm 638 W/m2
16:00 82.6 °F /  28.1 °C 64.3 °F /  17.9 °C 30.17in /  1021.6hPa WSW 7mph /  11.3km/h 14mph /  22.5km/h 54% 0.00in /  0mm 606 W/m2
16:10 82.6 °F /  28.1 °C 64.3 °F /  17.9 °C 30.16in /  1021.2hPa WSW 8mph /  12.9km/h 13mph /  20.9km/h 54% 0.00in /  0mm 580 W/m2
16:20 82.4 °F /  28 °C 64.1 °F /  17.8 °C 30.16in /  1021.2hPa WSW 6mph /  9.7km/h 14mph /  22.5km/h 54% 0.00in /  0mm 553 W/m2
16:30 82.6 °F /  28.1 °C 64.3 °F /  17.9 °C 30.16in /  1021.2hPa WSW 7mph /  11.3km/h 13mph /  20.9km/h 54% 0.00in /  0mm 524 W/m2
16:40 82.8 °F /  28.2 °C 64.4 °F /  18 °C 30.16in /  1021.2hPa WSW 7mph /  11.3km/h 12mph /  19.3km/h 54% 0.00in /  0mm 494 W/m2
16:50 82.6 °F /  28.1 °C 63.7 °F /  17.6 °C 30.16in /  1021.2hPa WSW 6mph /  9.7km/h 14mph /  22.5km/h 53% 0.00in /  0mm 460 W/m2
17:00 82.8 °F /  28.2 °C 64 °F /  17.8 °C 30.16in /  1021.2hPa WSW 7mph /  11.3km/h 15mph /  24.1km/h 53% 0.00in /  0mm 424 W/m2
17:10 82.7 °F /  28.2 °C 63.3 °F /  17.4 °C 30.15in /  1020.9hPa WSW 9mph /  14.5km/h 14mph /  22.5km/h 52% 0.00in /  0mm 394 W/m2
17:20 82.4 °F /  28 °C 63 °F /  17.2 °C 30.15in /  1020.9hPa West 9mph /  14.5km/h 14mph /  22.5km/h 52% 0.00in /  0mm 363 W/m2
17:30 82.4 °F /  28 °C 62.5 °F /  16.9 °C 30.15in /  1020.9hPa West 10mph /  16.1km/h 15mph /  24.1km/h 51% 0.00in /  0mm 326 W/m2
17:40 81.9 °F /  27.7 °C 62.5 °F /  16.9 °C 30.15in /  1020.9hPa West 9mph /  14.5km/h 17mph /  27.4km/h 52% 0.00in /  0mm 293 W/m2
17:50 81.5 °F /  27.5 °C 62.2 °F /  16.8 °C 30.15in /  1020.9hPa West 9mph /  14.5km/h 14mph /  22.5km/h 52% 0.00in /  0mm 266 W/m2
18:00 81 °F /  27.2 °C 61.8 °F /  16.6 °C 30.15in /  1020.9hPa West 8mph /  12.9km/h 16mph /  25.7km/h 52% 0.00in /  0mm 234 W/m2
18:10 80.8 °F /  27.1 °C 62.1 °F /  16.7 °C 30.15in /  1020.9hPa West 8mph /  12.9km/h 13mph /  20.9km/h 53% 0.00in /  0mm 200 W/m2
18:20 80.4 °F /  26.9 °C 61.7 °F /  16.5 °C 30.15in /  1020.9hPa West 8mph /  12.9km/h 14mph /  22.5km/h 53% 0.00in /  0mm 167 W/m2
18:30 80 °F /  26.7 °C 61.8 °F /  16.6 °C 30.16in /  1021.2hPa WSW 6mph /  9.7km/h 13mph /  20.9km/h 54% 0.00in /  0mm 139 W/m2
18:40 79.5 °F /  26.4 °C 61.4 °F /  16.3 °C 30.16in /  1021.2hPa West 6mph /  9.7km/h 12mph /  19.3km/h 54% 0.00in /  0mm 115 W/m2
18:50 78.9 °F /  26.1 °C 61.3 °F /  16.3 °C 30.16in /  1021.2hPa WSW 7mph /  11.3km/h 12mph /  19.3km/h 55% 0.00in /  0mm 97 W/m2
19:00 77.9 °F /  25.5 °C 60.4 °F /  15.8 °C 30.17in /  1021.6hPa West 6mph /  9.7km/h 13mph /  20.9km/h 55% 0.00in /  0mm 72 W/m2
19:10 77.4 °F /  25.2 °C 60.4 °F /  15.8 °C 30.17in /  1021.6hPa West 6mph /  9.7km/h 11mph /  17.7km/h 56% 0.00in /  0mm 51 W/m2
19:20 76.8 °F /  24.9 °C 60.4 °F /  15.8 °C 30.17in /  1021.6hPa West 5mph /  8km/h 11mph /  17.7km/h 57% 0.00in /  0mm 36 W/m2
19:30 76.3 °F /  24.6 °C 59.9 °F /  15.5 °C 30.17in /  1021.6hPa West 5mph /  8km/h 8mph /  12.9km/h 57% 0.00in /  0mm 24 W/m2
19:40 75.6 °F /  24.2 °C 59.7 °F /  15.4 °C 30.17in /  1021.6hPa West 3mph /  4.8km/h 8mph /  12.9km/h 58% 0.00in /  0mm 14 W/m2
19:50 74.9 °F /  23.8 °C 59.6 °F /  15.3 °C 30.17in /  1021.6hPa WSW 3mph /  4.8km/h 6mph /  9.7km/h 59% 0.00in /  0mm 8 W/m2
20:00 74.1 °F /  23.4 °C 58.9 °F /  14.9 °C 30.18in /  1021.9hPa WSW 3mph /  4.8km/h 5mph /  8km/h 59% 0.00in /  0mm 3 W/m2
20:10 73.5 °F /  23.1 °C 58.7 °F /  14.8 °C 30.18in /  1021.9hPa WSW 1mph /  1.6km/h 5mph /  8km/h 60% 0.00in /  0mm 0 W/m2
20:20 72.9 °F /  22.7 °C 59.2 °F /  15.1 °C 30.18in /  1021.9hPa WNW 1mph /  1.6km/h 4mph /  6.4km/h 62% 0.00in /  0mm 0 W/m2
20:30 72.3 °F /  22.4 °C 58.6 °F /  14.8 °C 30.19in /  1022.2hPa West 1mph /  1.6km/h 5mph /  8km/h 62% 0.00in /  0mm 0 W/m2
20:40 71.8 °F /  22.1 °C 58.5 °F /  14.7 °C 30.19in /  1022.2hPa NW 1mph /  1.6km/h 5mph /  8km/h 63% 0.00in /  0mm 0 W/m2
20:50 71.1 °F /  21.7 °C 58.3 °F /  14.6 °C 30.19in /  1022.2hPa SW 1mph /  1.6km/h 2mph /  3.2km/h 64% 0.00in /  0mm 0 W/m2
21:00 70.3 °F /  21.3 °C 58.9 °F /  14.9 °C 30.20in /  1022.6hPa SSE 2mph /  3.2km/h 4mph /  6.4km/h 67% 0.00in /  0mm 0 W/m2
21:10 69.6 °F /  20.9 °C 58.6 °F /  14.8 °C 30.20in /  1022.6hPa South 1mph /  1.6km/h 3mph /  4.8km/h 68% 0.00in /  0mm 0 W/m2
21:20 69 °F /  20.6 °C 58 °F /  14.4 °C 30.20in /  1022.6hPa SW 1mph /  1.6km/h 2mph /  3.2km/h 68% 0.00in /  0mm 0 W/m2
21:30 68.3 °F /  20.2 °C 57.7 °F /  14.3 °C 30.21in /  1022.9hPa SW 1mph /  1.6km/h 2mph /  3.2km/h 69% 0.00in /  0mm 0 W/m2
21:40 67.6 °F /  19.8 °C 57.5 °F /  14.2 °C 30.21in /  1022.9hPa WNW 1mph /  1.6km/h 3mph /  4.8km/h 70% 0.00in /  0mm 0 W/m2
21:50 67.1 °F /  19.5 °C 57.8 °F /  14.3 °C 30.21in /  1022.9hPa South 1mph /  1.6km/h 5mph /  8km/h 72% 0.00in /  0mm 0 W/m2
22:00 66.5 °F /  19.2 °C 57.5 °F /  14.2 °C 30.21in /  1022.9hPa NNW 1mph /  1.6km/h 3mph /  4.8km/h 73% 0.00in /  0mm 0 W/m2
22:10 65.9 °F /  18.8 °C 57 °F /  13.9 °C 30.21in /  1022.9hPa SSE 1mph /  1.6km/h 3mph /  4.8km/h 73% 0.00in /  0mm 0 W/m2
22:20 65.4 °F /  18.6 °C 56.9 °F /  13.8 °C 30.21in /  1022.9hPa Calm   3mph /  4.8km/h 74% 0.00in /  0mm 0 W/m2
22:30 65 °F /  18.3 °C 56.5 °F /  13.6 °C 30.22in /  1023.2hPa South 2mph /  3.2km/h 5mph /  8km/h 74% 0.00in /  0mm 0 W/m2
22:40 64.3 °F /  17.9 °C 56.2 °F /  13.4 °C 30.22in /  1023.2hPa WSW 2mph /  3.2km/h 4mph /  6.4km/h 75% 0.00in /  0mm 0 W/m2
22:50 64 °F /  17.8 °C 56 °F /  13.3 °C 30.22in /  1023.2hPa WSW 1mph /  1.6km/h 5mph /  8km/h 75% 0.00in /  0mm 0 W/m2
23:00 63.9 °F /  17.7 °C 55.8 °F /  13.2 °C 30.22in /  1023.2hPa NW 2mph /  3.2km/h 3mph /  4.8km/h 75% 0.00in /  0mm 0 W/m2
23:10 63.3 °F /  17.4 °C 56 °F /  13.3 °C 30.22in /  1023.2hPa Calm   3mph /  4.8km/h 77% 0.00in /  0mm 0 W/m2
23:20 63 °F /  17.2 °C 55.6 °F /  13.1 °C 30.22in /  1023.2hPa Calm   3mph /  4.8km/h 77% 0.00in /  0mm 0 W/m2
23:30 62.5 °F /  16.9 °C 55.5 °F /  13.1 °C 30.22in /  1023.2hPa Calm   3mph /  4.8km/h 78% 0.00in /  0mm 0 W/m2
23:40 62.1 °F /  16.7 °C 55.1 °F /  12.8 °C 30.22in /  1023.2hPa NW 1mph /  1.6km/h 3mph /  4.8km/h 78% 0.00in /  0mm 0 W/m2
23:50 61.5 °F /  16.4 °C 54.6 °F /  12.6 °C 30.22in /  1023.2hPa WNW 2mph /  3.2km/h 3mph /  4.8km/h 78% 0.00in /  0mm 0 W/m2
Knjazevac, Serbia
Compliments of Weather Underground - 2 mb